createdAt,value
2018-10-06T00:00:38.582Z,74.70
2018-10-06T00:03:07.310Z,75.00
2018-10-06T00:05:35.996Z,74.50
2018-10-06T00:08:04.920Z,75.00
2018-10-06T00:10:33.615Z,74.90
2018-10-06T00:13:02.388Z,74.60
2018-10-06T00:15:31.267Z,73.80
2018-10-06T00:18:00.167Z,74.10
2018-10-06T00:20:28.875Z,73.80
2018-10-06T00:22:58.313Z,73.80
2018-10-06T00:25:27.079Z,74.70
2018-10-06T00:27:56.007Z,74.60
2018-10-06T00:30:24.825Z,75.20
2018-10-06T00:32:53.447Z,75.00
2018-10-06T00:35:22.277Z,74.80
2018-10-06T00:37:51.782Z,75.20
2018-10-06T00:40:20.582Z,74.80
2018-10-06T00:42:49.217Z,75.60
2018-10-06T00:45:17.919Z,74.60
2018-10-06T00:47:46.905Z,75.30
2018-10-06T00:50:15.623Z,75.10
2018-10-06T00:52:44.342Z,74.70
2018-10-06T00:55:13.074Z,75.50
2018-10-06T00:57:41.836Z,75.00
2018-10-06T01:00:10.990Z,75.20
2018-10-06T01:02:39.717Z,75.40
2018-10-06T01:05:08.736Z,75.40
2018-10-06T01:07:37.427Z,76.20
2018-10-06T01:10:06.178Z,76.20
2018-10-06T01:12:34.867Z,76.60
2018-10-06T01:15:03.598Z,76.00
2018-10-06T01:17:32.356Z,76.30
2018-10-06T01:20:01.096Z,76.30
2018-10-06T01:22:29.864Z,76.20
2018-10-06T01:24:58.552Z,75.90
2018-10-06T01:27:27.478Z,75.70
2018-10-06T01:29:56.365Z,76.20
2018-10-06T01:32:25.054Z,75.20
2018-10-06T01:34:53.911Z,75.30
2018-10-06T01:37:22.639Z,75.50
2018-10-06T01:39:51.406Z,76.30
2018-10-06T01:42:20.154Z,76.10
2018-10-06T01:44:48.854Z,76.60
2018-10-06T01:47:17.580Z,75.70
2018-10-06T01:49:46.227Z,75.90
2018-10-06T01:52:15.091Z,76.00
2018-10-06T01:54:43.797Z,75.60
2018-10-06T01:57:12.919Z,75.40
2018-10-06T01:59:41.591Z,74.90
2018-10-06T02:02:11.077Z,75.10
2018-10-06T02:04:40.084Z,76.20
2018-10-06T02:07:08.693Z,75.50
2018-10-06T02:09:37.422Z,75.00
2018-10-06T02:12:06.297Z,75.70
2018-10-06T02:14:35.007Z,75.50
2018-10-06T02:17:04.475Z,75.60
2018-10-06T02:19:33.531Z,75.80
2018-10-06T02:22:02.255Z,75.00
2018-10-06T02:24:31.043Z,74.80
2018-10-06T02:26:59.851Z,74.90
2018-10-06T02:29:28.554Z,74.60
2018-10-06T02:32:00.754Z,75.20
2018-10-06T02:34:29.533Z,74.80
2018-10-06T02:36:58.323Z,75.20
2018-10-06T02:39:27.096Z,76.50
2018-10-06T02:41:55.735Z,75.00
2018-10-06T02:44:24.390Z,75.90
2018-10-06T02:46:53.153Z,75.40
2018-10-06T02:49:21.846Z,74.80
2018-10-06T02:51:50.703Z,76.60
2018-10-06T02:54:19.387Z,76.20
2018-10-06T02:56:48.064Z,76.10
2018-10-06T02:59:17.551Z,75.40
2018-10-06T03:01:46.276Z,74.70
2018-10-06T03:04:15.182Z,76.00
2018-10-06T03:06:43.892Z,76.10
2018-10-06T03:09:12.768Z,76.40
2018-10-06T03:11:41.723Z,76.50
2018-10-06T03:14:10.618Z,76.70
2018-10-06T03:16:39.343Z,76.40
2018-10-06T03:19:08.247Z,76.30
2018-10-06T03:21:37.148Z,76.90
2018-10-06T03:24:05.915Z,76.40
2018-10-06T03:26:34.650Z,75.90
2018-10-06T03:29:03.358Z,76.50
2018-10-06T03:31:32.177Z,76.90
2018-10-06T03:34:00.889Z,76.70
2018-10-06T03:36:29.633Z,76.00
2018-10-06T03:38:58.283Z,76.10
2018-10-06T03:41:26.988Z,76.00
2018-10-06T03:43:55.872Z,75.30
2018-10-06T03:46:24.615Z,75.90
2018-10-06T03:48:53.306Z,75.60
2018-10-06T03:51:22.567Z,75.20
2018-10-06T03:53:51.338Z,75.30
2018-10-06T03:56:20.101Z,75.40
2018-10-06T03:58:49.146Z,76.20
2018-10-06T04:01:18.036Z,75.50
2018-10-06T04:03:47.113Z,75.60
2018-10-06T04:06:15.757Z,75.70
2018-10-06T04:08:44.426Z,75.70
2018-10-06T04:11:13.174Z,75.30
2018-10-06T04:13:41.992Z,75.40
2018-10-06T04:16:10.840Z,76.20
2018-10-06T04:18:39.622Z,76.40
2018-10-06T04:21:08.436Z,76.40
2018-10-06T04:23:37.369Z,76.10
2018-10-06T04:26:06.317Z,76.50
2018-10-06T04:28:35.067Z,75.40
2018-10-06T04:31:03.890Z,75.80
2018-10-06T04:33:32.845Z,75.20
2018-10-06T04:36:01.740Z,75.00
2018-10-06T04:38:31.488Z,74.60
2018-10-06T04:41:00.256Z,75.80
2018-10-06T04:43:30.500Z,76.10
2018-10-06T04:46:01.476Z,76.00
2018-10-06T04:48:31.082Z,75.80
2018-10-06T04:51:01.450Z,76.10
2018-10-06T04:53:31.496Z,75.20
2018-10-06T04:56:01.180Z,75.30
2018-10-06T04:58:31.036Z,75.60
2018-10-06T05:01:00.379Z,75.20
2018-10-06T05:03:30.479Z,75.30
2018-10-06T05:06:00.288Z,75.50
2018-10-06T05:08:31.425Z,75.30
2018-10-06T05:11:01.803Z,75.70
2018-10-06T05:13:30.760Z,75.60
2018-10-06T05:15:59.531Z,75.90
2018-10-06T05:18:29.920Z,75.40
2018-10-06T05:20:59.854Z,76.10
2018-10-06T05:23:29.671Z,76.70
2018-10-06T05:25:59.476Z,77.20
2018-10-06T05:28:28.448Z,77.60
2018-10-06T05:30:57.288Z,77.30
2018-10-06T05:33:27.131Z,77.20
2018-10-06T05:35:56.026Z,77.20
2018-10-06T05:38:29.486Z,77.00
2018-10-06T05:40:59.009Z,76.10
2018-10-06T05:43:28.431Z,76.90
2018-10-06T05:45:57.850Z,76.90
2018-10-06T05:48:28.729Z,76.70
2018-10-06T05:50:57.587Z,76.30
2018-10-06T05:53:28.032Z,77.00
2018-10-06T05:55:56.927Z,76.70
2018-10-06T05:58:26.375Z,76.30
2018-10-06T06:00:56.222Z,76.00
2018-10-06T06:03:25.898Z,76.20
2018-10-06T06:05:56.695Z,76.30
2018-10-06T06:08:26.591Z,76.80
2018-10-06T06:10:55.614Z,76.50
2018-10-06T06:13:24.401Z,76.10
2018-10-06T06:15:53.803Z,76.60
2018-10-06T06:18:22.700Z,77.20
2018-10-06T06:20:51.450Z,77.60
2018-10-06T06:23:20.404Z,78.40
2018-10-06T06:25:50.296Z,78.30
2018-10-06T06:28:19.695Z,79.00
2018-10-06T06:30:57.023Z,80.70
2018-10-06T06:33:27.026Z,79.10
2018-10-06T06:35:56.490Z,78.70
2018-10-06T06:38:26.412Z,80.10
2018-10-06T06:40:55.789Z,79.70
2018-10-06T06:43:24.789Z,80.00
2018-10-06T06:45:54.384Z,79.40
2018-10-06T06:48:24.088Z,79.90
2018-10-06T06:50:53.750Z,80.40
2018-10-06T06:53:22.597Z,80.30
2018-10-06T06:55:52.329Z,80.10
2018-10-06T06:58:22.395Z,80.30
2018-10-06T07:00:53.039Z,80.80
2018-10-06T07:03:21.699Z,80.80
2018-10-06T07:05:50.691Z,80.80
2018-10-06T07:08:19.188Z,79.80
2018-10-06T07:10:48.091Z,80.90
2018-10-06T07:13:17.947Z,80.70
2018-10-06T07:15:46.730Z,80.60
2018-10-06T07:18:15.616Z,80.00
2018-10-06T07:20:44.664Z,80.60
2018-10-06T07:23:13.624Z,79.60
2018-10-06T07:25:42.616Z,79.40
2018-10-06T07:28:11.493Z,78.90
2018-10-06T07:30:40.729Z,80.10
2018-10-06T07:33:09.483Z,80.00
2018-10-06T07:35:38.141Z,79.50
2018-10-06T07:38:06.923Z,79.60
2018-10-06T07:40:35.667Z,79.80
2018-10-06T07:43:04.403Z,79.60
2018-10-06T07:45:33.121Z,79.90
2018-10-06T07:48:01.927Z,80.60
2018-10-06T07:50:32.176Z,80.40
2018-10-06T07:53:01.006Z,79.80
2018-10-06T07:55:32.096Z,80.20
2018-10-06T07:58:01.986Z,80.70
2018-10-06T08:00:32.250Z,80.40
2018-10-06T08:03:01.702Z,80.50
2018-10-06T08:05:30.620Z,79.80
2018-10-06T08:10:33.498Z,80.00
2018-10-06T08:13:02.974Z,81.20
2018-10-06T08:15:31.670Z,81.00
2018-10-06T08:18:01.271Z,80.30
2018-10-06T08:20:30.913Z,80.10
2018-10-06T08:23:00.751Z,79.70
2018-10-06T08:25:29.605Z,80.10
2018-10-06T08:27:58.226Z,79.40
2018-10-06T08:30:27.364Z,78.00
2018-10-06T08:32:56.206Z,77.00
2018-10-06T08:35:26.141Z,77.80
2018-10-06T08:37:56.040Z,74.70
2018-10-06T08:40:25.046Z,76.20
2018-10-06T08:42:54.632Z,76.40
2018-10-06T08:45:23.328Z,75.90
2018-10-06T08:47:52.020Z,73.90
2018-10-06T08:50:22.578Z,73.70
2018-10-06T08:52:52.417Z,73.50
2018-10-06T08:55:21.393Z,72.30
2018-10-06T08:57:50.399Z,73.00
2018-10-06T09:00:19.603Z,70.80
2018-10-06T09:05:21.246Z,70.70
2018-10-06T09:07:51.254Z,71.60
2018-10-06T09:10:20.066Z,69.10
2018-10-06T09:12:51.360Z,68.80
2018-10-06T09:15:20.215Z,69.30
2018-10-06T09:17:48.902Z,66.90
2018-10-06T09:20:17.891Z,67.50
2018-10-06T09:22:46.587Z,67.70
2018-10-06T09:25:16.191Z,67.90
2018-10-06T09:27:44.987Z,65.50
2018-10-06T09:30:13.727Z,67.20
2018-10-06T09:32:42.664Z,64.30
2018-10-06T09:35:11.492Z,64.90
2018-10-06T09:37:40.291Z,65.10
2018-10-06T09:40:09.055Z,65.10
2018-10-06T09:42:37.856Z,65.30
2018-10-06T09:45:06.911Z,64.30
2018-10-06T09:47:35.688Z,62.90
2018-10-06T09:50:04.646Z,62.40
2018-10-06T09:52:34.266Z,60.20
2018-10-06T09:55:03.108Z,60.50
2018-10-06T09:57:31.832Z,59.00
2018-10-06T10:00:00.670Z,59.40
2018-10-06T10:02:35.044Z,59.70
2018-10-06T10:05:10.270Z,56.70
2018-10-06T10:07:39.014Z,58.90
2018-10-06T10:10:07.787Z,56.90
2018-10-06T10:12:36.771Z,56.10
2018-10-06T10:15:05.578Z,56.20
2018-10-06T10:17:34.517Z,57.50
2018-10-06T10:20:05.960Z,54.00
2018-10-06T10:22:35.297Z,56.10
2018-10-06T10:25:04.727Z,54.50
2018-10-06T10:27:35.262Z,53.60
2018-10-06T10:30:05.873Z,53.50
2018-10-06T10:32:34.779Z,52.00
2018-10-06T10:35:03.781Z,53.90
2018-10-06T10:37:34.478Z,55.10
2018-10-06T10:40:04.855Z,53.40
2018-10-06T10:42:34.846Z,52.60
2018-10-06T10:45:04.816Z,53.30
2018-10-06T10:47:34.928Z,53.40
2018-10-06T10:50:05.482Z,51.20
2018-10-06T10:52:34.904Z,52.80
2018-10-06T10:55:04.625Z,51.10
2018-10-06T10:57:33.827Z,50.90
2018-10-06T11:00:02.682Z,51.30
2018-10-06T11:02:31.259Z,52.40
2018-10-06T11:05:00.252Z,49.80
2018-10-06T11:07:30.953Z,49.70
2018-10-06T11:10:02.715Z,49.30
2018-10-06T11:12:32.667Z,49.40
2018-10-06T11:15:03.304Z,51.00
2018-10-06T11:17:36.013Z,49.60
2018-10-06T11:20:05.836Z,50.20
2018-10-06T11:22:35.206Z,48.10
2018-10-06T11:25:05.642Z,49.00
2018-10-06T11:27:35.634Z,48.50
2018-10-06T11:30:04.624Z,49.20
2018-10-06T11:32:33.925Z,47.10
2018-10-06T11:35:04.913Z,47.40
2018-10-06T11:37:33.583Z,47.60
2018-10-06T11:40:03.082Z,46.10
2018-10-06T11:42:31.777Z,46.20
2018-10-06T11:45:00.406Z,47.30
2018-10-06T11:47:31.452Z,45.50
2018-10-06T11:50:01.095Z,44.80
2018-10-06T11:52:32.492Z,42.90
2018-10-06T11:55:03.041Z,42.10
2018-10-06T11:57:31.796Z,41.60
2018-10-06T12:00:04.000Z,42.80
2018-10-06T12:02:33.766Z,42.40
2018-10-06T12:07:38.471Z,42.00
2018-10-06T12:10:08.081Z,44.50
2018-10-06T12:12:37.627Z,44.40
2018-10-06T12:15:07.571Z,45.80
2018-10-06T12:17:37.341Z,42.40
2018-10-06T12:20:07.465Z,45.00
2018-10-06T12:22:37.421Z,43.70
2018-10-06T12:25:06.265Z,44.20
2018-10-06T12:27:34.975Z,44.80
2018-10-06T12:30:04.031Z,44.30
2018-10-06T12:32:33.173Z,44.70
2018-10-06T12:35:04.578Z,44.60
2018-10-06T12:37:33.843Z,44.70
2018-10-06T12:40:04.167Z,45.70
2018-10-06T12:42:33.896Z,44.70
2018-10-06T12:45:09.482Z,43.20
2018-10-06T12:47:38.551Z,43.40
2018-10-06T12:50:07.911Z,42.70
2018-10-06T12:52:38.617Z,43.20
2018-10-06T12:57:40.016Z,42.40
2018-10-06T13:00:09.512Z,42.90
2018-10-06T13:02:38.367Z,41.40
2018-10-06T13:05:07.750Z,39.50
2018-10-06T13:07:36.917Z,38.30
2018-10-06T13:10:05.966Z,38.90
2018-10-06T13:12:34.836Z,39.30
2018-10-06T13:15:04.134Z,39.00
2018-10-06T13:17:32.850Z,37.70
2018-10-06T13:20:01.564Z,37.60
2018-10-06T13:22:29.894Z,35.40
2018-10-06T13:24:58.923Z,35.10
2018-10-06T13:27:27.623Z,33.50
2018-10-06T13:29:58.585Z,34.70
2018-10-06T13:32:27.331Z,34.40
2018-10-06T13:34:56.027Z,35.90
2018-10-06T13:37:24.348Z,38.00
2018-10-06T13:39:53.643Z,38.10
2018-10-06T13:42:22.436Z,36.50
2018-10-06T13:44:51.496Z,39.00
2018-10-06T13:47:20.295Z,38.70
2018-10-06T13:49:48.967Z,40.60
2018-10-06T13:52:17.549Z,37.70
2018-10-06T13:54:47.000Z,38.50
2018-10-06T13:57:15.972Z,39.30
2018-10-06T13:59:44.703Z,38.10
2018-10-06T14:02:13.487Z,37.70
2018-10-06T14:04:42.272Z,36.90
2018-10-06T14:07:11.011Z,38.00
2018-10-06T14:09:40.780Z,37.40
2018-10-06T14:12:09.505Z,36.40
2018-10-06T14:14:38.338Z,37.30
2018-10-06T14:17:14.172Z,36.40
2018-10-06T14:19:43.671Z,35.00
2018-10-06T14:22:13.215Z,36.50
2018-10-06T14:24:42.984Z,37.20
2018-10-06T14:27:11.749Z,37.30
2018-10-06T14:29:41.130Z,35.40
2018-10-06T14:32:09.910Z,35.40
2018-10-06T14:34:38.812Z,34.90
2018-10-06T14:37:07.622Z,34.60
2018-10-06T14:39:36.255Z,35.10
2018-10-06T14:42:05.175Z,34.30
2018-10-06T14:44:34.694Z,35.30
2018-10-06T14:47:03.546Z,35.70
2018-10-06T14:49:33.177Z,36.20
2018-10-06T14:52:02.041Z,36.80
2018-10-06T14:54:33.334Z,37.20
2018-10-06T14:57:02.930Z,36.90
2018-10-06T14:59:32.712Z,38.50
2018-10-06T15:02:03.607Z,38.10
2018-10-06T15:04:33.640Z,39.60
2018-10-06T15:07:05.269Z,41.50
2018-10-06T15:09:34.201Z,41.10
2018-10-06T15:12:03.304Z,41.90
2018-10-06T15:14:32.110Z,41.90
2018-10-06T15:17:00.992Z,41.10
2018-10-06T15:19:31.102Z,42.50
2018-10-06T15:22:00.519Z,41.90
2018-10-06T15:24:31.622Z,43.20
2018-10-06T15:27:00.705Z,44.30
2018-10-06T15:29:29.565Z,44.60
2018-10-06T15:31:58.588Z,43.80
2018-10-06T15:34:27.378Z,44.20
2018-10-06T15:36:56.144Z,44.20
2018-10-06T15:39:25.144Z,44.60
2018-10-06T15:41:53.885Z,44.60
2018-10-06T15:44:22.732Z,44.80
2018-10-06T15:46:54.449Z,45.50
2018-10-06T15:49:23.401Z,46.30
2018-10-06T15:51:52.274Z,46.20
2018-10-06T15:54:20.939Z,47.60
2018-10-06T15:56:49.974Z,48.40
2018-10-06T15:59:18.752Z,48.30
2018-10-06T16:01:47.662Z,48.90
2018-10-06T16:04:16.263Z,48.50
2018-10-06T16:06:44.969Z,48.40
2018-10-06T16:09:13.793Z,48.50
2018-10-06T16:11:42.433Z,48.50
2018-10-06T16:14:11.075Z,48.30
2018-10-06T16:16:39.846Z,47.80
2018-10-06T16:19:08.496Z,49.00
2018-10-06T16:21:37.096Z,50.80
2018-10-06T16:24:05.884Z,50.50
2018-10-06T16:26:34.562Z,51.30
2018-10-06T16:29:03.112Z,51.40
2018-10-06T16:31:31.927Z,52.50
2018-10-06T16:34:00.496Z,53.00
2018-10-06T16:36:29.039Z,54.20
2018-10-06T16:38:58.304Z,55.40
2018-10-06T16:41:27.065Z,54.50
2018-10-06T16:43:55.868Z,54.80
2018-10-06T16:46:24.845Z,54.80
2018-10-06T16:48:53.583Z,54.90
2018-10-06T16:51:22.235Z,56.60
2018-10-06T16:53:51.108Z,56.90
2018-10-06T16:56:19.855Z,56.50
2018-10-06T16:58:48.611Z,56.70
2018-10-06T17:01:17.494Z,57.20
2018-10-06T17:03:46.655Z,58.50
2018-10-06T17:06:15.393Z,58.40
2018-10-06T17:08:44.157Z,57.90
2018-10-06T17:11:13.331Z,57.70
2018-10-06T17:13:42.234Z,57.80
2018-10-06T17:16:11.056Z,57.20
2018-10-06T17:18:41.093Z,57.80
2018-10-06T17:21:12.415Z,57.50
2018-10-06T17:23:42.353Z,57.70
2018-10-06T17:26:11.380Z,58.10
2018-10-06T17:28:40.001Z,58.90
2018-10-06T17:31:09.751Z,57.90
2018-10-06T17:33:39.608Z,58.20
2018-10-06T17:36:08.517Z,58.30
2018-10-06T17:38:38.520Z,59.30
2018-10-06T17:41:07.617Z,59.40
2018-10-06T17:43:40.036Z,60.40
2018-10-06T17:46:09.761Z,60.10
2018-10-06T17:48:39.035Z,62.60
2018-10-06T17:51:08.715Z,62.30
2018-10-06T17:53:38.071Z,63.00
2018-10-06T17:56:08.056Z,63.00
2018-10-06T17:58:36.940Z,64.00
2018-10-06T18:01:05.914Z,64.40
2018-10-06T18:03:35.651Z,65.00
2018-10-06T18:06:04.455Z,65.80
2018-10-06T18:08:33.439Z,66.20
2018-10-06T18:11:02.292Z,66.90
2018-10-06T18:13:32.287Z,67.60
2018-10-06T18:16:02.607Z,67.60
2018-10-06T18:18:32.321Z,67.50
2018-10-06T18:21:02.124Z,67.60
2018-10-06T18:23:31.362Z,66.70
2018-10-06T18:26:00.265Z,67.50
2018-10-06T18:28:29.094Z,67.80
2018-10-06T18:30:58.536Z,67.70
2018-10-06T18:33:28.162Z,67.90
2018-10-06T18:35:57.408Z,68.80
2018-10-06T18:38:26.184Z,69.50
2018-10-06T18:40:55.214Z,70.10
2018-10-06T18:43:25.488Z,70.40
2018-10-06T18:45:54.425Z,69.70
2018-10-06T18:48:23.128Z,70.50
2018-10-06T18:50:52.067Z,71.30
2018-10-06T18:53:20.930Z,73.40
2018-10-06T18:55:49.558Z,73.30
2018-10-06T18:58:18.514Z,74.10
2018-10-06T19:00:47.225Z,74.40
2018-10-06T19:03:16.867Z,75.00
2018-10-06T19:05:45.902Z,75.80
2018-10-06T19:08:15.548Z,76.70
2018-10-06T19:10:44.772Z,76.90
2018-10-06T19:13:14.292Z,76.80
2018-10-06T19:15:44.239Z,76.90
2018-10-06T19:18:13.974Z,76.90
2018-10-06T19:20:42.769Z,76.50
2018-10-06T19:23:12.058Z,78.10
2018-10-06T19:25:41.876Z,77.80
2018-10-06T19:28:10.694Z,77.60
2018-10-06T19:30:40.194Z,77.80
2018-10-06T19:33:09.090Z,78.70
2018-10-06T19:35:38.043Z,78.70
2018-10-06T19:38:06.810Z,78.00
2018-10-06T19:40:36.320Z,78.40
2018-10-06T19:43:05.168Z,79.30
2018-10-06T19:45:35.502Z,79.60
2018-10-06T19:48:04.324Z,79.30
2018-10-06T19:50:33.036Z,78.40
2018-10-06T19:53:01.902Z,77.80
2018-10-06T19:55:30.682Z,77.50
2018-10-06T19:57:59.413Z,78.00
2018-10-06T20:00:28.144Z,77.30
2018-10-06T20:02:56.712Z,77.30
2018-10-06T20:05:25.356Z,77.20
2018-10-06T20:07:53.964Z,77.60
2018-10-06T20:10:22.928Z,77.70
2018-10-06T20:12:53.785Z,77.30
2018-10-06T20:15:22.477Z,78.20
2018-10-06T20:17:52.391Z,78.30
2018-10-06T20:20:21.785Z,78.30
2018-10-06T20:22:50.130Z,77.90
2018-10-06T20:25:18.814Z,78.30
2018-10-06T20:27:47.971Z,79.00
2018-10-06T20:30:16.680Z,79.40
2018-10-06T20:32:45.393Z,79.50
2018-10-06T20:35:14.052Z,79.10
2018-10-06T20:37:42.835Z,79.70
2018-10-06T20:40:11.873Z,79.80
2018-10-06T20:42:40.723Z,80.10
2018-10-06T20:45:09.659Z,79.80
2018-10-06T20:47:38.425Z,80.30
2018-10-06T20:50:07.463Z,79.70
2018-10-06T20:52:35.847Z,79.10
2018-10-06T20:55:04.756Z,80.00
2018-10-06T20:57:33.766Z,79.20
2018-10-06T21:00:02.913Z,78.10
2018-10-06T21:02:32.038Z,78.90
2018-10-06T21:05:00.976Z,79.10
2018-10-06T21:07:29.619Z,79.30
2018-10-06T21:09:59.043Z,79.30
2018-10-06T21:12:28.087Z,79.50
2018-10-06T21:14:57.203Z,78.60
2018-10-06T21:17:26.283Z,78.00
2018-10-06T21:19:55.493Z,78.90
2018-10-06T21:22:23.947Z,79.20
2018-10-06T21:24:53.426Z,79.50
2018-10-06T21:27:22.234Z,79.50
2018-10-06T21:29:51.220Z,80.40
2018-10-06T21:32:20.299Z,80.60
2018-10-06T21:34:49.212Z,80.60
2018-10-06T21:37:17.726Z,79.90
2018-10-06T21:39:47.307Z,80.30
2018-10-06T21:42:16.212Z,79.90
2018-10-06T21:44:45.453Z,79.80
2018-10-06T21:47:14.283Z,80.90
2018-10-06T21:49:43.707Z,81.00
2018-10-06T21:52:12.232Z,81.10
2018-10-06T21:54:41.202Z,81.50
2018-10-06T21:57:10.570Z,81.10
2018-10-06T21:59:39.313Z,80.40
2018-10-06T22:02:08.082Z,80.90
2018-10-06T22:04:37.172Z,80.30
2018-10-06T22:07:05.779Z,81.10
2018-10-06T22:09:34.715Z,80.10
2018-10-06T22:12:03.528Z,80.90
2018-10-06T22:14:32.567Z,81.00
2018-10-06T22:17:02.262Z,80.80
2018-10-06T22:19:31.114Z,81.40
2018-10-06T22:21:59.620Z,81.10
2018-10-06T22:24:28.589Z,80.00
2018-10-06T22:26:57.565Z,80.10
2018-10-06T22:29:26.400Z,79.10
2018-10-06T22:31:55.126Z,80.80
2018-10-06T22:34:23.818Z,79.60
2018-10-06T22:36:52.423Z,79.60
2018-10-06T22:39:21.483Z,80.40
2018-10-06T22:41:50.569Z,79.20
2018-10-06T22:44:19.551Z,79.00
2018-10-06T22:46:48.359Z,78.60
2018-10-06T22:49:17.439Z,79.60
2018-10-06T22:51:45.994Z,79.00
2018-10-06T22:54:15.057Z,79.50
2018-10-06T22:56:44.155Z,80.20
2018-10-06T22:59:13.008Z,80.10
2018-10-06T23:01:42.637Z,79.90
2018-10-06T23:04:11.601Z,80.00
2018-10-06T23:06:40.118Z,79.30
2018-10-06T23:09:10.415Z,79.80
2018-10-06T23:11:39.405Z,78.50
2018-10-06T23:14:08.555Z,80.10
2018-10-06T23:16:37.704Z,79.30
2018-10-06T23:19:06.741Z,79.80
2018-10-06T23:21:37.018Z,79.50
2018-10-06T23:24:05.960Z,79.00
2018-10-06T23:26:34.869Z,80.00
2018-10-06T23:29:03.692Z,80.00
2018-10-06T23:31:32.701Z,80.30
2018-10-06T23:34:01.850Z,79.00
2018-10-06T23:36:30.928Z,78.80
2018-10-06T23:38:59.608Z,78.00
2018-10-06T23:41:28.722Z,77.60
2018-10-06T23:43:58.249Z,77.70
2018-10-06T23:46:27.085Z,77.00
2018-10-06T23:48:55.925Z,77.50
2018-10-06T23:51:25.061Z,76.90
2018-10-06T23:53:53.823Z,76.90
2018-10-06T23:56:22.803Z,76.30
2018-10-06T23:58:52.429Z,77.00
